createdAt,value
2022-08-25T00:00:57.914Z,17.90
2022-08-25T00:03:29.618Z,17.90
2022-08-25T00:06:09.135Z,17.90
2022-08-25T00:08:41.718Z,17.90
2022-08-25T00:11:22.895Z,17.80
2022-08-25T00:13:59.070Z,17.80
2022-08-25T00:16:32.462Z,17.80
2022-08-25T00:19:11.496Z,17.80
2022-08-25T00:21:44.589Z,17.70
2022-08-25T00:24:19.760Z,17.70
2022-08-25T00:26:54.958Z,17.70
2022-08-25T00:29:27.918Z,17.70
2022-08-25T00:32:00.176Z,17.70
2022-08-25T00:34:36.017Z,17.70
2022-08-25T00:37:09.459Z,17.70
2022-08-25T00:39:41.180Z,17.60
2022-08-25T00:42:15.996Z,17.60
2022-08-25T00:44:48.173Z,17.60
2022-08-25T00:47:20.441Z,17.60
2022-08-25T00:49:56.884Z,17.60
2022-08-25T00:52:43.593Z,17.60
2022-08-25T00:55:47.826Z,17.60
2022-08-25T00:58:25.678Z,17.60
2022-08-25T01:00:58.713Z,17.50
2022-08-25T01:03:34.071Z,17.60
2022-08-25T01:06:10.097Z,17.50
2022-08-25T01:08:41.982Z,17.50
2022-08-25T01:11:13.804Z,17.50
2022-08-25T01:13:50.749Z,17.40
2022-08-25T01:16:22.981Z,17.30
2022-08-25T01:19:00.519Z,17.40
2022-08-25T01:21:39.652Z,17.40
2022-08-25T01:24:40.769Z,17.30
2022-08-25T01:27:13.095Z,17.30
2022-08-25T01:29:44.874Z,17.20
2022-08-25T01:32:16.582Z,17.20
2022-08-25T01:34:48.390Z,17.20
2022-08-25T01:37:23.476Z,17.20
2022-08-25T01:39:55.319Z,17.20
2022-08-25T01:42:46.825Z,17.20
2022-08-25T01:45:18.943Z,17.10
2022-08-25T01:47:50.975Z,17.10
2022-08-25T01:50:22.823Z,17.10
2022-08-25T01:52:59.757Z,17.00
2022-08-25T01:55:51.427Z,17.00
2022-08-25T01:58:27.048Z,17.00
2022-08-25T02:01:01.878Z,16.90
2022-08-25T02:03:36.328Z,16.90
2022-08-25T02:06:11.834Z,16.90
2022-08-25T02:08:44.163Z,16.90
2022-08-25T02:11:16.026Z,16.90
2022-08-25T02:13:47.786Z,16.80
2022-08-25T02:16:39.769Z,16.90
2022-08-25T02:19:12.493Z,16.80
2022-08-25T02:21:44.870Z,16.80
2022-08-25T02:24:17.597Z,16.80
2022-08-25T02:26:50.440Z,16.80
2022-08-25T02:29:22.475Z,16.80
2022-08-25T02:31:54.282Z,16.70
2022-08-25T02:34:25.972Z,16.70
2022-08-25T02:36:57.981Z,16.70
2022-08-25T02:39:29.718Z,16.70
2022-08-25T02:42:01.449Z,16.70
2022-08-25T02:44:33.423Z,16.70
2022-08-25T02:47:05.189Z,16.70
2022-08-25T02:49:36.931Z,16.60
2022-08-25T02:52:09.021Z,16.60
2022-08-25T02:54:41.367Z,16.60
2022-08-25T02:57:14.191Z,16.60
2022-08-25T02:59:48.372Z,16.60
2022-08-25T03:02:20.418Z,16.60
2022-08-25T03:04:53.487Z,16.60
2022-08-25T03:07:26.951Z,16.60
2022-08-25T03:09:59.818Z,16.60
2022-08-25T03:12:31.523Z,16.60
2022-08-25T03:15:04.331Z,16.60
2022-08-25T03:17:41.148Z,16.70
2022-08-25T03:20:18.403Z,16.70
2022-08-25T03:22:50.702Z,16.60
2022-08-25T03:25:41.002Z,16.60
2022-08-25T03:28:12.742Z,16.60
2022-08-25T03:30:44.986Z,16.60
2022-08-25T03:33:16.790Z,16.60
2022-08-25T03:35:48.562Z,16.70
2022-08-25T03:38:20.301Z,16.60
2022-08-25T03:40:52.653Z,16.60
2022-08-25T03:43:24.391Z,16.60
2022-08-25T03:45:57.087Z,16.60
2022-08-25T03:48:29.350Z,16.60
2022-08-25T03:51:01.134Z,16.50
2022-08-25T03:53:32.945Z,16.50
2022-08-25T03:56:04.873Z,16.50
2022-08-25T03:58:37.152Z,16.50
2022-08-25T04:01:09.713Z,16.40
2022-08-25T04:03:41.577Z,16.40
2022-08-25T04:06:14.010Z,16.30
2022-08-25T04:08:46.218Z,16.30
2022-08-25T04:11:21.270Z,16.30
2022-08-25T04:13:56.174Z,16.20
2022-08-25T04:16:31.324Z,16.20
2022-08-25T04:19:06.155Z,16.20
2022-08-25T04:21:39.171Z,16.20
2022-08-25T04:24:12.721Z,16.20
2022-08-25T04:26:48.006Z,16.20
2022-08-25T04:29:23.751Z,16.20
2022-08-25T04:31:56.173Z,16.30
2022-08-25T04:34:30.239Z,16.20
2022-08-25T04:37:05.426Z,16.20
2022-08-25T04:39:37.234Z,16.30
2022-08-25T04:42:09.059Z,16.20
2022-08-25T04:44:41.737Z,16.20
2022-08-25T04:47:13.494Z,16.20
2022-08-25T04:49:45.335Z,16.20
2022-08-25T04:52:17.298Z,16.20
2022-08-25T04:54:49.033Z,16.20
2022-08-25T04:57:20.792Z,16.20
2022-08-25T04:59:52.590Z,16.20
2022-08-25T05:02:25.267Z,16.20
2022-08-25T05:04:57.545Z,16.20
2022-08-25T05:07:29.258Z,16.20
2022-08-25T05:10:01.024Z,16.20
2022-08-25T05:12:34.237Z,16.30
2022-08-25T05:15:27.950Z,16.30
2022-08-25T05:17:59.796Z,16.40
2022-08-25T05:20:31.775Z,16.40
2022-08-25T05:23:04.110Z,16.40
2022-08-25T05:25:35.975Z,16.50
2022-08-25T05:28:07.724Z,16.50
2022-08-25T05:30:41.271Z,16.50
2022-08-25T05:33:13.528Z,16.60
2022-08-25T05:35:45.309Z,16.60
2022-08-25T05:38:17.179Z,16.70
2022-08-25T05:40:59.126Z,16.70
2022-08-25T05:43:31.882Z,16.70
2022-08-25T05:46:03.737Z,16.80
2022-08-25T05:48:36.374Z,16.80
2022-08-25T05:51:10.487Z,16.90
2022-08-25T05:53:45.604Z,16.90
2022-08-25T05:56:18.455Z,17.00
2022-08-25T05:58:50.373Z,17.10
2022-08-25T06:01:46.691Z,17.20
2022-08-25T06:04:20.243Z,17.30
2022-08-25T06:06:54.735Z,17.40
2022-08-25T06:09:26.509Z,17.40
2022-08-25T06:11:58.443Z,17.50
2022-08-25T06:14:30.204Z,17.60
2022-08-25T06:17:01.995Z,17.70
2022-08-25T06:19:33.970Z,17.70
2022-08-25T06:22:08.815Z,17.80
2022-08-25T06:24:40.575Z,17.90
2022-08-25T06:27:12.393Z,18.00
2022-08-25T06:29:44.331Z,18.10
2022-08-25T06:32:16.323Z,18.10
2022-08-25T06:34:48.177Z,18.20
2022-08-25T06:37:24.615Z,18.30
2022-08-25T06:39:57.229Z,18.40
2022-08-25T06:42:29.127Z,18.50
2022-08-25T06:45:01.373Z,18.50
2022-08-25T06:47:33.368Z,18.60
2022-08-25T06:50:05.694Z,18.70
2022-08-25T06:52:37.445Z,18.70
2022-08-25T06:55:09.625Z,18.90
2022-08-25T06:57:41.574Z,19.00
2022-08-25T07:00:13.715Z,19.10
2022-08-25T07:02:47.015Z,19.20
2022-08-25T07:05:33.416Z,19.30
2022-08-25T07:08:05.813Z,19.40
2022-08-25T07:10:37.724Z,19.50
2022-08-25T07:13:09.479Z,19.60
2022-08-25T07:15:43.816Z,19.70
2022-08-25T07:18:16.839Z,19.80
2022-08-25T07:20:49.055Z,19.90
2022-08-25T07:23:21.296Z,20.00
2022-08-25T07:25:54.319Z,20.20
2022-08-25T07:28:26.136Z,20.30
2022-08-25T07:31:00.951Z,20.30
2022-08-25T07:33:33.083Z,20.40
2022-08-25T07:36:05.954Z,20.50
2022-08-25T07:38:37.867Z,20.50
2022-08-25T07:41:09.571Z,20.60
2022-08-25T07:43:41.768Z,20.70
2022-08-25T07:46:13.637Z,20.90
2022-08-25T07:48:45.507Z,21.00
2022-08-25T07:54:02.380Z,21.30
2022-08-25T07:56:35.551Z,21.30
2022-08-25T07:59:08.733Z,21.40
2022-08-25T08:01:44.809Z,21.50
2022-08-25T08:04:16.630Z,21.70
2022-08-25T08:06:48.461Z,21.80
2022-08-25T08:09:20.277Z,21.80
2022-08-25T08:11:54.459Z,22.00
2022-08-25T08:14:26.354Z,22.10
2022-08-25T08:16:58.080Z,22.10
2022-08-25T08:19:30.901Z,22.10
2022-08-25T08:22:04.082Z,22.10
2022-08-25T08:24:44.638Z,22.20
2022-08-25T08:27:26.161Z,22.30
2022-08-25T08:29:57.900Z,22.40
2022-08-25T08:32:36.676Z,22.50
2022-08-25T08:35:22.506Z,22.60
2022-08-25T08:37:54.281Z,22.50
2022-08-25T08:40:26.948Z,22.50
2022-08-25T08:43:07.095Z,22.60
2022-08-25T08:45:53.770Z,22.50
2022-08-25T08:49:06.762Z,22.60
2022-08-25T08:51:55.851Z,22.80
2022-08-25T08:54:34.034Z,23.00
2022-08-25T08:57:16.617Z,23.10
2022-08-25T08:59:56.650Z,23.30
2022-08-25T09:02:51.528Z,23.50
2022-08-25T09:05:28.153Z,23.50
2022-08-25T09:08:10.210Z,23.60
2022-08-25T09:10:54.664Z,23.80
2022-08-25T09:13:36.007Z,24.00
2022-08-25T09:16:51.678Z,24.10
2022-08-25T09:19:33.780Z,24.30
2022-08-25T09:22:33.572Z,25.00
2022-08-25T09:25:52.287Z,26.10
2022-08-25T09:28:36.211Z,28.10
2022-08-25T09:31:29.539Z,29.70
2022-08-25T09:34:05.502Z,30.50
2022-08-25T09:36:37.988Z,30.30
2022-08-25T09:39:10.018Z,30.80
2022-08-25T09:41:46.708Z,31.50
2022-08-25T09:44:39.425Z,32.20
2022-08-25T09:47:27.992Z,32.80
2022-08-25T09:50:04.462Z,33.30
2022-08-25T09:52:41.110Z,33.50
2022-08-25T09:55:16.081Z,33.30
2022-08-25T09:57:53.059Z,33.30
2022-08-25T10:00:27.524Z,33.30
2022-08-25T10:03:06.114Z,33.40
2022-08-25T10:06:06.791Z,34.00
2022-08-25T10:08:40.613Z,34.40
2022-08-25T10:11:15.445Z,34.50
2022-08-25T10:13:51.881Z,34.50
2022-08-25T10:16:30.960Z,35.20
2022-08-25T10:19:13.298Z,35.70
2022-08-25T10:21:45.021Z,36.00
2022-08-25T10:24:16.878Z,36.60
2022-08-25T10:27:00.558Z,36.70
2022-08-25T10:30:03.001Z,36.90
2022-08-25T10:33:06.851Z,35.90
2022-08-25T10:36:06.534Z,35.20
2022-08-25T10:38:43.075Z,35.50
2022-08-25T10:41:28.016Z,34.50
2022-08-25T10:44:45.251Z,33.30
2022-08-25T10:47:29.228Z,31.70
2022-08-25T10:50:32.844Z,30.80
2022-08-25T10:53:25.735Z,30.40
2022-08-25T10:56:07.356Z,29.80
2022-08-25T10:58:51.303Z,30.30
2022-08-25T11:01:43.632Z,31.10
2022-08-25T11:04:20.424Z,32.10
2022-08-25T11:07:05.659Z,32.60
2022-08-25T11:09:43.062Z,33.60
2022-08-25T11:12:35.719Z,34.30
2022-08-25T11:15:12.851Z,33.80
2022-08-25T11:18:20.266Z,33.70
2022-08-25T11:21:12.803Z,34.10
2022-08-25T11:23:55.738Z,34.30
2022-08-25T11:26:36.866Z,34.60
2022-08-25T11:29:16.498Z,34.60
2022-08-25T11:31:53.966Z,33.90
2022-08-25T11:34:28.740Z,33.10
2022-08-25T11:37:11.068Z,32.40
2022-08-25T11:40:05.266Z,31.80
2022-08-25T11:42:37.003Z,30.90
2022-08-25T11:45:45.724Z,30.30
2022-08-25T11:48:23.489Z,29.60
2022-08-25T11:51:09.428Z,29.20
2022-08-25T11:53:43.199Z,29.20
2022-08-25T11:56:40.087Z,29.10
2022-08-25T11:59:12.248Z,29.10
2022-08-25T12:01:43.928Z,29.10
2022-08-25T12:04:44.800Z,28.90
2022-08-25T12:07:25.807Z,28.90
2022-08-25T12:10:03.599Z,28.70
2022-08-25T12:12:57.498Z,28.40
2022-08-25T12:15:43.250Z,28.20
2022-08-25T12:18:23.510Z,28.20
2022-08-25T12:20:56.359Z,28.20
2022-08-25T12:23:29.007Z,28.20
2022-08-25T12:26:11.161Z,28.30
2022-08-25T12:28:52.158Z,28.40
2022-08-25T12:31:42.310Z,28.50
2022-08-25T12:34:38.586Z,28.70
2022-08-25T12:37:19.839Z,28.80
2022-08-25T12:40:05.309Z,28.70
2022-08-25T12:42:44.952Z,28.60
2022-08-25T12:45:19.473Z,28.70
2022-08-25T12:47:54.611Z,28.60
2022-08-25T12:50:35.606Z,28.50
2022-08-25T12:53:28.114Z,28.40
2022-08-25T12:56:05.847Z,28.70
2022-08-25T12:59:00.156Z,28.90
2022-08-25T13:02:03.116Z,28.90
2022-08-25T13:04:39.005Z,28.80
2022-08-25T13:07:43.202Z,29.10
2022-08-25T13:10:24.345Z,29.20
2022-08-25T13:13:30.423Z,29.30
2022-08-25T13:16:09.910Z,29.30
2022-08-25T13:18:42.545Z,29.20
2022-08-25T13:21:19.481Z,29.20
2022-08-25T13:23:54.856Z,29.20
2022-08-25T13:26:48.050Z,28.90
2022-08-25T13:29:34.080Z,28.60
2022-08-25T13:32:14.423Z,28.60
2022-08-25T13:34:46.504Z,28.70
2022-08-25T13:37:31.346Z,28.90
2022-08-25T13:40:24.721Z,28.80
2022-08-25T13:43:06.400Z,28.90
2022-08-25T13:45:42.536Z,28.60
2022-08-25T13:48:30.898Z,28.60
2022-08-25T13:51:31.416Z,28.70
2022-08-25T13:54:06.639Z,28.80
2022-08-25T13:56:42.044Z,29.00
2022-08-25T13:59:34.253Z,29.20
2022-08-25T14:02:19.281Z,29.20
2022-08-25T14:04:52.919Z,29.20
2022-08-25T14:07:34.357Z,29.10
2022-08-25T14:10:09.999Z,29.00
2022-08-25T14:12:46.342Z,28.90
2022-08-25T14:15:18.243Z,28.80
2022-08-25T14:18:01.900Z,28.60
2022-08-25T14:20:35.787Z,28.30
2022-08-25T14:23:16.188Z,28.00
2022-08-25T14:25:52.215Z,27.70
2022-08-25T14:28:27.139Z,27.70
2022-08-25T14:31:33.934Z,27.80
2022-08-25T14:34:12.349Z,28.10
2022-08-25T14:36:44.962Z,28.20
2022-08-25T14:39:17.687Z,28.30
2022-08-25T14:41:52.593Z,28.30
2022-08-25T14:44:25.071Z,28.20
2022-08-25T14:47:01.904Z,28.20
2022-08-25T14:49:37.891Z,28.20
2022-08-25T14:52:26.591Z,28.20
2022-08-25T14:54:58.519Z,28.30
2022-08-25T14:57:30.395Z,28.50
2022-08-25T15:00:05.124Z,28.60
2022-08-25T15:02:43.660Z,28.60
2022-08-25T15:05:24.710Z,28.50
2022-08-25T15:08:16.347Z,28.50
2022-08-25T15:10:48.074Z,28.30
2022-08-25T15:13:21.398Z,28.40
2022-08-25T15:15:54.101Z,28.30
2022-08-25T15:18:26.132Z,28.40
2022-08-25T15:20:57.947Z,28.40
2022-08-25T15:23:30.122Z,28.30
2022-08-25T15:26:01.999Z,28.20
2022-08-25T15:28:40.487Z,28.00
2022-08-25T15:31:13.028Z,27.90
2022-08-25T15:33:44.894Z,27.80
2022-08-25T15:36:25.714Z,27.70
2022-08-25T15:38:57.407Z,27.60
2022-08-25T15:41:29.583Z,27.60
2022-08-25T15:44:01.466Z,27.60
2022-08-25T15:46:35.092Z,27.40
2022-08-25T15:49:07.940Z,27.30
2022-08-25T15:51:40.693Z,27.20
2022-08-25T15:54:14.250Z,27.00
2022-08-25T15:56:46.251Z,27.00
2022-08-25T15:59:18.054Z,27.00
2022-08-25T16:01:54.157Z,26.90
2022-08-25T16:04:28.488Z,26.90
2022-08-25T16:07:00.775Z,26.80
2022-08-25T16:09:33.053Z,26.90
2022-08-25T16:12:08.499Z,26.90
2022-08-25T16:14:40.893Z,26.90
2022-08-25T16:17:12.782Z,26.90
2022-08-25T16:19:44.974Z,26.80
2022-08-25T16:22:16.902Z,26.90
2022-08-25T16:24:48.659Z,26.90
2022-08-25T16:27:20.394Z,26.90
2022-08-25T16:29:52.394Z,26.80
2022-08-25T16:32:24.355Z,26.60
2022-08-25T16:34:57.691Z,26.60
2022-08-25T16:37:29.978Z,26.40
2022-08-25T16:40:02.513Z,26.40
2022-08-25T16:42:34.363Z,26.30
2022-08-25T16:45:06.814Z,26.30
2022-08-25T16:47:39.670Z,26.30
2022-08-25T16:50:15.391Z,26.40
2022-08-25T16:53:07.950Z,26.40
2022-08-25T16:55:40.032Z,26.40
2022-08-25T16:58:12.578Z,26.40
2022-08-25T17:00:45.459Z,26.30
2022-08-25T17:03:17.293Z,26.30
2022-08-25T17:05:49.367Z,26.30
2022-08-25T17:08:30.763Z,26.30
2022-08-25T17:11:14.206Z,26.30
2022-08-25T17:13:49.726Z,26.30
2022-08-25T17:16:27.797Z,26.20
2022-08-25T17:19:02.640Z,26.00
2022-08-25T17:21:37.606Z,25.90
2022-08-25T17:24:10.534Z,25.80
2022-08-25T17:26:43.390Z,25.90
2022-08-25T17:29:17.205Z,25.90
2022-08-25T17:31:49.207Z,25.70
2022-08-25T17:34:23.537Z,25.60
2022-08-25T17:36:55.982Z,25.30
2022-08-25T17:39:28.043Z,25.10
2022-08-25T17:42:00.259Z,24.90
2022-08-25T17:44:32.902Z,24.80
2022-08-25T17:47:04.841Z,24.60
2022-08-25T17:49:37.220Z,24.50
2022-08-25T17:52:09.058Z,24.40
2022-08-25T17:54:40.817Z,24.20
2022-08-25T17:57:12.534Z,24.10
2022-08-25T17:59:44.773Z,24.00
2022-08-25T18:02:16.490Z,23.90
2022-08-25T18:04:48.979Z,23.80
2022-08-25T18:07:20.857Z,23.70
2022-08-25T18:09:54.037Z,23.60
2022-08-25T18:12:27.537Z,23.60
2022-08-25T18:15:00.034Z,23.50
2022-08-25T18:17:31.798Z,23.30
2022-08-25T18:20:10.214Z,23.20
2022-08-25T18:22:44.103Z,23.20
2022-08-25T18:25:16.225Z,23.10
2022-08-25T18:27:48.687Z,23.00
2022-08-25T18:30:21.174Z,22.90
2022-08-25T18:32:53.003Z,22.80
2022-08-25T18:35:27.059Z,22.70
2022-08-25T18:38:17.615Z,22.70
2022-08-25T18:40:55.759Z,22.60
2022-08-25T18:43:31.266Z,22.50
2022-08-25T18:46:05.979Z,22.50
2022-08-25T18:48:40.132Z,22.40
2022-08-25T18:51:13.518Z,22.30
2022-08-25T18:53:50.112Z,22.30
2022-08-25T18:56:22.681Z,22.20
2022-08-25T18:58:54.370Z,22.20
2022-08-25T19:01:26.340Z,22.10
2022-08-25T19:03:58.424Z,22.00
2022-08-25T19:06:31.223Z,22.00
2022-08-25T19:09:04.493Z,22.00
2022-08-25T19:11:36.244Z,21.90
2022-08-25T19:14:12.497Z,21.80
2022-08-25T19:16:45.092Z,21.80
2022-08-25T19:19:16.883Z,21.70
2022-08-25T19:21:48.616Z,21.70
2022-08-25T19:24:22.778Z,21.60
2022-08-25T19:26:56.882Z,21.60
2022-08-25T19:29:31.450Z,21.50
2022-08-25T19:32:04.751Z,21.50
2022-08-25T19:34:41.985Z,21.40
2022-08-25T19:37:16.963Z,21.40
2022-08-25T19:39:53.793Z,21.30
2022-08-25T19:42:34.835Z,21.30
2022-08-25T19:45:10.331Z,21.20
2022-08-25T19:47:42.321Z,21.20
2022-08-25T19:50:16.901Z,21.20
2022-08-25T19:52:50.158Z,21.10
2022-08-25T19:55:22.283Z,21.10
2022-08-25T19:57:55.014Z,21.10
2022-08-25T20:00:30.527Z,21.00
2022-08-25T20:03:03.494Z,21.00
2022-08-25T20:05:37.270Z,21.00
2022-08-25T20:08:09.153Z,21.00
2022-08-25T20:10:41.670Z,20.90
2022-08-25T20:13:14.223Z,20.90
2022-08-25T20:15:46.489Z,20.80
2022-08-25T20:18:18.420Z,20.70
2022-08-25T20:20:50.555Z,20.70
2022-08-25T20:23:41.216Z,20.60
2022-08-25T20:26:13.059Z,20.50
2022-08-25T20:28:44.786Z,20.40
2022-08-25T20:31:16.628Z,20.40
2022-08-25T20:33:48.410Z,20.30
2022-08-25T20:36:21.107Z,20.30
2022-08-25T20:38:52.908Z,20.30
2022-08-25T20:41:24.806Z,20.30
2022-08-25T20:43:57.222Z,20.30
2022-08-25T20:46:29.092Z,20.30
2022-08-25T20:49:01.774Z,20.30
2022-08-25T20:51:34.816Z,20.20
2022-08-25T20:54:06.974Z,20.20
2022-08-25T20:56:38.791Z,20.20
2022-08-25T20:59:11.756Z,20.20
2022-08-25T21:01:43.678Z,20.10
2022-08-25T21:04:17.886Z,20.10
2022-08-25T21:06:50.827Z,20.00
2022-08-25T21:09:24.263Z,20.00
2022-08-25T21:11:57.374Z,19.90
2022-08-25T21:14:29.609Z,19.90
2022-08-25T21:17:01.465Z,19.90
2022-08-25T21:19:33.735Z,19.90
2022-08-25T21:22:05.439Z,19.90
2022-08-25T21:24:37.697Z,19.90
2022-08-25T21:27:09.462Z,19.90
2022-08-25T21:29:44.695Z,19.90
2022-08-25T21:32:26.905Z,19.90
2022-08-25T21:34:58.887Z,19.80
2022-08-25T21:37:30.714Z,19.90
2022-08-25T21:40:02.634Z,19.80
2022-08-25T21:42:39.029Z,19.80
2022-08-25T21:45:11.507Z,19.80
2022-08-25T21:47:43.763Z,19.80
2022-08-25T21:50:15.577Z,19.70
2022-08-25T21:52:47.635Z,19.70
2022-08-25T21:55:26.359Z,19.60
2022-08-25T21:57:58.426Z,19.60
2022-08-25T22:00:30.545Z,19.60
2022-08-25T22:03:03.190Z,19.60
2022-08-25T22:05:37.149Z,19.60
2022-08-25T22:08:09.222Z,19.60
2022-08-25T22:10:44.777Z,19.50
2022-08-25T22:13:16.612Z,19.50
2022-08-25T22:15:52.110Z,19.40
2022-08-25T22:18:24.785Z,19.40
2022-08-25T22:20:57.915Z,19.30
2022-08-25T22:23:29.866Z,19.30
2022-08-25T22:26:05.427Z,19.30
2022-08-25T22:28:37.195Z,19.30
2022-08-25T22:31:10.199Z,19.30
2022-08-25T22:33:43.443Z,19.30
2022-08-25T22:36:17.766Z,19.30
2022-08-25T22:38:51.703Z,19.30
2022-08-25T22:41:26.927Z,19.20
2022-08-25T22:44:00.394Z,19.20
2022-08-25T22:46:36.963Z,19.20
2022-08-25T22:49:08.718Z,19.10
2022-08-25T22:51:40.916Z,19.10
2022-08-25T22:54:14.929Z,19.10
2022-08-25T22:56:46.736Z,19.10
2022-08-25T22:59:18.633Z,19.10
2022-08-25T23:01:52.598Z,19.10
2022-08-25T23:04:26.429Z,19.10
2022-08-25T23:06:58.159Z,19.10
2022-08-25T23:09:30.454Z,19.00
2022-08-25T23:12:02.368Z,18.90
2022-08-25T23:14:36.583Z,18.80
2022-08-25T23:17:08.672Z,18.70
2022-08-25T23:19:40.470Z,18.60
2022-08-25T23:22:16.356Z,18.60
2022-08-25T23:24:52.027Z,18.50
2022-08-25T23:27:24.865Z,18.50
2022-08-25T23:29:56.995Z,18.60
2022-08-25T23:32:29.975Z,18.60
2022-08-25T23:35:01.907Z,18.50
2022-08-25T23:37:34.210Z,18.50
2022-08-25T23:40:10.567Z,18.50
2022-08-25T23:42:42.397Z,18.50
2022-08-25T23:45:15.810Z,18.50
2022-08-25T23:47:47.501Z,18.50
2022-08-25T23:50:22.480Z,18.50
2022-08-25T23:52:54.246Z,18.50
2022-08-25T23:55:27.777Z,18.50
2022-08-25T23:58:01.615Z,18.50
